Flight Track Log - Related Links

Times and Time Zones

All times are in EDT time to prevent confusion due to time zone crossing. See the DAL1934 flight status page for this flight to view local times or setup timezone preferences in your user account.

Time Position Orientation Groundspeed Altitude Reporting Facility
EDT Latitude Longitude Course Direction KTS MPH feet Rate Location/Type
Thu 02:15:52 PM 39.0333 -84.6667 180° South 179 206 1,700  Level Cincinnati TRACON
Thu 02:16:58 PM 38.9667 -84.6667 180° South 244 281 3,500 2,143 Climbing Cincinnati TRACON
Thu 02:17:58 PM 38.9000 -84.6833 191° South 285 328 6,200 2,544 Climbing Cincinnati TRACON
Thu 02:19:03 PM 38.8228 -84.7403 210° Southwest 284 327 8,800 2,173 Climbing Indianapolis Center
Thu 02:20:05 PM 38.7500 -84.7922 209° Southwest 289 333 10,800 1,707 Climbing Indianapolis Center
Thu 02:21:06 PM 38.6667 -84.8494 208° Southwest 316 364 12,300 2,049 Climbing Indianapolis Center
Thu 02:22:08 PM 38.5483 -84.9300 208° Southwest 369 425 15,000 2,390 Climbing Indianapolis Center
Thu 02:23:09 PM 38.4453 -84.9953 206° Southwest 397 457 17,200 2,000 Climbing Indianapolis Center
Thu 02:24:11 PM 38.3350 -85.0583 204° Southwest 421 484 19,100 1,770 Climbing Indianapolis Center
Thu 02:26:12 PM 38.2169 -85.3161 240° Southwest 418 481 22,600 1,663 Climbing Memphis Center
Thu 02:27:15 PM 38.1597 -85.4500 242° Southwest 422 486 24,200 1,333 Climbing Memphis Center
Thu 02:28:18 PM 38.0864 -85.5697 232° Southwest 448 516 25,400 1,306 Climbing Indianapolis Center
Thu 02:29:19 PM 37.9797 -85.6558 212° Southwest 452 520 26,900 1,415 Climbing Indianapolis Center
Thu 02:30:21 PM 37.8697 -85.7369 210° Southwest 452 520 28,300 1,659 Climbing Indianapolis Center
Thu 02:31:22 PM 37.7397 -85.8350 211° Southwest 452 520 30,300 1,317 Climbing Indianapolis Center
Thu 02:32:24 PM 37.6344 -85.9133 211° Southwest 445 512 31,000 227 Climbing Indianapolis Center
Thu 02:34:27 PM 37.4264 -86.0667 210° Southwest 433 498 31,000  Level Indianapolis Center
Thu 02:36:33 PM 37.2206 -86.2244 211° Southwest 432 497 31,000  Level Memphis Center
Thu 02:37:35 PM 37.1172 -86.3025 211° Southwest 431 496 31,000  Level Memphis Center
Thu 02:38:37 PM 37.0033 -86.3592 202° Southwest 443 510 31,000  Level Memphis Center
Thu 02:40:41 PM 36.7275 -86.3617 154° Southeast 450 518 31,000  Level Memphis Center
Thu 02:42:45 PM 36.4728 -86.3600 180° South 450 518 31,000 -258 Level Memphis Center
Thu 02:43:47 PM 36.3431 -86.3431 174° South 456 525 30,200 -968 Descending Memphis Center
Thu 02:44:49 PM 36.2128 -86.3297 175° South 456 525 29,000 -385 Descending Memphis Center
Thu 02:46:54 PM 35.9469 -86.3039 167° South 471 542 29,000  Level Memphis Center
Thu 02:47:56 PM 35.8197 -86.2575 164° South 471 542 29,000  Level Memphis Center
Thu 02:49:53 PM 35.5722 -86.1144 155° Southeast 476 548 29,000  Level Indianapolis Center
Thu 02:50:53 PM 35.4556 -86.0531 157° South 485 558 29,000  Level Atlanta Center
Thu 02:51:53 PM 35.3211 -85.9783 156° South 475 547 29,000  Level Atlanta Center
Thu 02:53:06 PM 35.1961 -85.9031 154° Southeast 478 550 29,000  Level Memphis Center
Thu 02:55:10 PM 34.9397 -85.7267 151° Southeast 481 554 29,000  Level Memphis Center
Thu 02:56:12 PM 34.8256 -85.6383 148° Southeast 483 556 29,000  Level Memphis Center
Thu 02:56:53 PM 34.7531 -85.5808 147° Southeast 487 560 29,000 -475 Level Atlanta Center
Thu 02:57:53 PM 34.6372 -85.4906 147° Southeast 493 567 28,200 -1,850 Descending Atlanta Center
Thu 02:58:53 PM 34.5236 -85.4003 147° Southeast 493 567 25,300 -2,700 Descending Atlanta Center
Thu 02:59:53 PM 34.4139 -85.3181 148° Southeast 487 560 22,800 -2,575 Descending Atlanta Center
Thu 03:02:53 PM 34.1156 -85.0700 121° Southeast 414 476 15,000 -2,375 Descending Atlanta Center
Thu 03:03:53 PM 34.0411 -84.9689 132° Southeast 414 476 13,300 -1,161 Descending Atlanta Center
Thu 03:05:28 PM 33.9167 -84.8167 135° Southeast 390 449 12,000 -503 Descending Atlanta TRACON
Thu 03:06:28 PM 33.8500 -84.7167 129° Southeast 396 456 12,000  Level Atlanta TRACON
Thu 03:07:27 PM 33.7833 -84.6333 134° Southeast 351 404 12,000 -350 Level Atlanta TRACON
Thu 03:08:00 PM 33.7702 -84.7069 121° Southeast  Level FlightAware
Thu 03:08:28 PM 33.7333 -84.5500 126° Southeast 271 312 11,300  Level Atlanta TRACON
Thu 03:09:28 PM 33.7333 -84.4667 90° East 269 310 9,100 -2,050 Descending Atlanta TRACON
Thu 03:10:28 PM 33.7333 -84.3833 90° East 258 297 7,200 -1,450 Descending Atlanta TRACON
Thu 03:11:28 PM 33.7333 -84.3000 90° East 250 288 6,200 -1,263 Descending Atlanta TRACON
Thu 03:12:22 PM 33.7167 -84.2333 107° East 251 289 4,800 -1,100 Descending Atlanta TRACON
Thu 03:13:28 PM 33.6667 -84.2333 180° South 206 237 4,000 -864 Descending Atlanta TRACON
Thu 03:14:34 PM 33.6500 -84.3000 253° West 186 214 2,900 -1,000 Descending Atlanta TRACON
Thu 03:15:34 PM 33.6500 -84.3500 270° West 147 169 1,900 -1,000 Descending Atlanta TRACON
Thu 03:17:00 PM 33.6333 -84.4167 North  Level FlightAware
Thu 03:24:00 PM 33.6367 -84.4279 North  Level Estimated
Thu 03:25:00 PM 33.6367 -84.4279 64° Northeast  Level Estimated
Thu 03:26:00 PM 33.6367 -84.4279 64° Northeast  Level Estimated

Login

Don't have an account? Register now (free) for customized features, flight alerts, and more!